createdAt,value
2022-10-23T07:36:01.557Z,45.6
2022-10-23T07:41:44.620Z,46.3
2022-10-23T07:47:06.414Z,47.6
2022-10-23T07:52:50.030Z,48.5
2022-10-23T07:58:27.959Z,49.3
2022-10-23T08:03:53.144Z,50.3
2022-10-23T08:15:28.719Z,52
2022-10-23T08:21:08.809Z,52.6
2022-10-23T08:26:48.489Z,53
2022-10-23T08:32:11.232Z,53.7
2022-10-23T08:37:48.257Z,54.3
2022-10-23T08:43:30.171Z,54.9
2022-10-23T08:49:07.579Z,55.4
2022-10-23T09:23:13.305Z,58.5
2022-10-23T09:28:54.924Z,59
2022-10-23T09:34:16.998Z,59.5
2022-10-23T09:39:55.833Z,60
2022-10-23T09:45:36.971Z,60.5
2022-10-23T09:51:03.161Z,61
2022-10-23T09:56:41.538Z,61.4
2022-10-23T10:02:20.693Z,61.9
2022-10-23T10:07:58.205Z,62.4
2022-10-23T10:13:35.841Z,62.8
2022-10-23T10:19:13.777Z,63.3
2022-10-23T10:24:54.644Z,63.7
2022-10-23T10:30:38.973Z,64.1
2022-10-23T10:36:21.561Z,64.5
2022-10-23T10:41:46.590Z,64.8
2022-10-23T10:47:24.796Z,65.2
2022-10-23T10:53:05.755Z,65.5
2022-10-23T10:58:46.055Z,65.8
2022-10-23T11:04:29.570Z,66.1
2022-10-23T11:10:26.359Z,66.4
2022-10-23T11:16:04.075Z,66.4
2022-10-23T11:21:43.862Z,66.7
2022-10-23T11:27:25.909Z,66.9
2022-10-23T11:33:08.878Z,66.9
2022-10-23T11:38:50.171Z,67.1
2022-10-23T11:44:17.497Z,67.3
2022-10-23T11:49:39.811Z,67.2
2022-10-23T11:55:27.036Z,67
2022-10-23T12:00:51.787Z,67.1
2022-10-23T12:06:15.354Z,67.1
2022-10-23T12:11:41.981Z,66.8
2022-10-23T12:17:23.530Z,66.7
2022-10-23T12:22:45.461Z,66.4
2022-10-23T12:28:23.109Z,65.9
2022-10-23T12:34:01.806Z,65.9
2022-10-23T12:39:42.054Z,65.9
2022-10-23T12:45:19.416Z,66
2022-10-23T12:51:03.465Z,65.8
2022-10-23T12:56:41.607Z,65.6
2022-10-23T13:02:24.953Z,65.3
2022-10-23T13:08:03.526Z,65.2
2022-10-23T13:13:24.981Z,64.6
2022-10-23T13:18:48.296Z,64.1
2022-10-23T13:23:55.310Z,63.6
2022-10-23T13:29:16.723Z,63.4
